Terminal Aerodrome Forecast
Issued by NWS Wilmington, OH

Current Version | Previous Version | Graphics & Text | Print | Product List | Glossary On
Versions: 1 2 3 4 5 6 7 8 9 10 11 12 13 14 15 16 17 18 19 20 21 22 23 24 25 26 27 28 29 30
000
FTUS41 KILN 271600 AAC
TAFDAY
TAF AMD
KDAY 271620Z 2716/2812 28014G24KT P6SM VCSH BKN012 OVC019
     FM272100 29014G24KT P6SM BKN035
     FM280200 30012G22KT P6SM VCSH BKN035
     FM280800 31012G24KT P6SM SCT035=

USA.gov is the U.S. government's official web portal to all federal, state and local government web resources and services.